createdAt,value
2019-01-10T00:00:50.689Z,22.20
2019-01-10T00:03:19.449Z,24.97
2019-01-10T00:05:48.238Z,16.17
2019-01-10T00:08:17.027Z,24.70
2019-01-10T00:10:45.920Z,24.80
2019-01-10T00:13:14.719Z,27.00
2019-01-10T00:15:43.520Z,27.67
2019-01-10T00:18:14.867Z,17.27
2019-01-10T00:20:43.678Z,49.67
2019-01-10T00:23:12.471Z,26.87
2019-01-10T00:25:41.259Z,45.37
2019-01-10T00:28:10.047Z,26.47
2019-01-10T00:30:38.846Z,18.57
2019-01-10T00:33:07.727Z,27.83
2019-01-10T00:35:36.563Z,20.40
2019-01-10T00:38:05.371Z,22.20
2019-01-10T00:40:34.255Z,28.97
2019-01-10T00:43:03.662Z,17.40
2019-01-10T00:45:32.534Z,21.07
2019-01-10T00:48:02.050Z,16.30
2019-01-10T00:50:31.853Z,25.13
2019-01-10T00:53:00.645Z,26.13
2019-01-10T00:55:29.755Z,17.13
2019-01-10T00:57:58.505Z,22.27
2019-01-10T01:00:27.319Z,30.63
2019-01-10T01:02:57.745Z,18.10
2019-01-10T01:05:28.545Z,28.97
2019-01-10T01:07:57.818Z,10.97
2019-01-10T01:10:27.454Z,27.97
2019-01-10T01:12:58.769Z,20.47
2019-01-10T01:15:25.635Z,23.13
2019-01-10T01:17:55.622Z,22.47
2019-01-10T01:20:25.069Z,26.10
2019-01-10T01:22:54.947Z,22.20
2019-01-10T01:25:26.565Z,23.87
2019-01-10T01:27:55.383Z,19.47
2019-01-10T01:30:26.310Z,32.93
2019-01-10T01:32:55.663Z,21.70
2019-01-10T01:35:24.491Z,24.23
2019-01-10T01:37:53.354Z,18.03
2019-01-10T01:40:22.970Z,29.17
2019-01-10T01:42:51.782Z,20.27
2019-01-10T01:45:22.328Z,22.63
2019-01-10T01:47:51.120Z,15.20
2019-01-10T01:50:22.250Z,30.67
2019-01-10T01:52:53.413Z,20.03
2019-01-10T01:55:20.119Z,24.60
2019-01-10T01:57:48.884Z,33.67
2019-01-10T02:00:20.599Z,26.80
2019-01-10T02:02:49.394Z,21.77
2019-01-10T02:05:18.168Z,17.93
2019-01-10T02:07:47.292Z,18.97
2019-01-10T02:10:20.100Z,18.57
2019-01-10T02:12:48.891Z,14.53
2019-01-10T02:15:17.660Z,20.13
2019-01-10T02:17:49.183Z,25.27
2019-01-10T02:20:15.879Z,23.17
2019-01-10T02:22:44.679Z,23.43
2019-01-10T02:25:13.694Z,31.73
2019-01-10T02:27:42.471Z,20.03
2019-01-10T02:30:14.126Z,19.67
2019-01-10T02:32:42.942Z,25.63
2019-01-10T02:35:11.736Z,22.23
2019-01-10T02:37:40.518Z,26.63
2019-01-10T02:40:09.314Z,23.10
2019-01-10T02:42:38.101Z,25.83
2019-01-10T02:45:07.527Z,22.23
2019-01-10T02:47:36.846Z,28.23
2019-01-10T02:50:06.936Z,27.30
2019-01-10T02:52:35.907Z,20.73
2019-01-10T02:55:05.527Z,18.33
2019-01-10T02:57:34.982Z,14.57
2019-01-10T03:00:04.576Z,15.60
2019-01-10T03:02:33.382Z,18.50
2019-01-10T03:05:02.254Z,17.47
2019-01-10T03:07:31.422Z,19.20
2019-01-10T03:10:00.200Z,23.80
2019-01-10T03:12:29.790Z,16.20
2019-01-10T03:14:58.576Z,16.30
2019-01-10T03:17:27.344Z,18.40
2019-01-10T03:19:56.127Z,22.47
2019-01-10T03:22:24.948Z,24.03
2019-01-10T03:24:53.763Z,19.57
2019-01-10T03:27:22.563Z,20.80
2019-01-10T03:29:51.351Z,13.13
2019-01-10T03:32:20.195Z,13.97
2019-01-10T03:34:49.112Z,27.70
2019-01-10T03:37:17.970Z,17.43
2019-01-10T03:39:46.740Z,33.87
2019-01-10T03:42:19.641Z,20.70
2019-01-10T03:44:48.446Z,16.70
2019-01-10T03:47:17.286Z,21.03
2019-01-10T03:49:46.709Z,23.37
2019-01-10T03:52:15.500Z,32.93
2019-01-10T03:54:45.662Z,19.53
2019-01-10T03:57:14.476Z,16.50
2019-01-10T03:59:43.376Z,17.33
2019-01-10T04:02:12.206Z,21.53
2019-01-10T04:04:41.090Z,23.53
2019-01-10T04:07:09.878Z,17.00
2019-01-10T04:09:39.445Z,18.80
2019-01-10T04:12:08.220Z,13.37
2019-01-10T04:14:37.059Z,15.13
2019-01-10T04:17:05.894Z,19.57
2019-01-10T04:19:34.739Z,18.23
2019-01-10T04:22:04.212Z,15.60
2019-01-10T04:24:33.049Z,11.70
2019-01-10T04:27:01.855Z,20.80
2019-01-10T04:29:30.636Z,20.17
2019-01-10T04:31:59.911Z,22.43
2019-01-10T04:34:30.433Z,14.57
2019-01-10T04:36:59.929Z,14.13
2019-01-10T04:39:29.771Z,14.77
2019-01-10T04:41:58.544Z,12.93
2019-01-10T04:44:27.346Z,18.50
2019-01-10T04:46:56.409Z,16.43
2019-01-10T04:49:25.316Z,12.13
2019-01-10T04:51:54.996Z,21.87
2019-01-10T04:54:24.425Z,21.87
2019-01-10T04:56:53.195Z,14.83
2019-01-10T04:59:22.811Z,15.73
2019-01-10T05:01:52.844Z,12.53
2019-01-10T05:04:21.653Z,20.77
2019-01-10T05:06:51.139Z,17.07
2019-01-10T05:09:20.343Z,21.33
2019-01-10T05:11:49.191Z,22.30
2019-01-10T05:14:18.005Z,10.63
2019-01-10T05:16:46.819Z,13.53
2019-01-10T05:19:15.610Z,20.40
2019-01-10T05:21:45.173Z,15.90
2019-01-10T05:24:14.063Z,15.63
2019-01-10T05:26:42.903Z,21.30
2019-01-10T05:29:11.796Z,19.40
2019-01-10T05:31:41.011Z,17.90
2019-01-10T05:34:11.211Z,17.30
2019-01-10T05:36:40.032Z,15.30
2019-01-10T05:39:10.388Z,20.47
2019-01-10T05:41:40.209Z,21.00
2019-01-10T05:44:09.004Z,10.53
2019-01-10T05:46:37.896Z,22.40
2019-01-10T05:49:06.757Z,11.23
2019-01-10T05:51:35.678Z,11.17
2019-01-10T05:54:04.555Z,11.13
2019-01-10T05:56:34.489Z,10.53
2019-01-10T05:59:03.337Z,12.87
2019-01-10T06:01:32.141Z,13.93
2019-01-10T06:04:00.976Z,12.93
2019-01-10T06:06:30.508Z,15.87
2019-01-10T06:08:59.450Z,25.00
2019-01-10T06:11:28.355Z,22.67
2019-01-10T06:13:57.277Z,16.47
2019-01-10T06:16:27.148Z,14.00
2019-01-10T06:18:56.003Z,20.63
2019-01-10T06:21:24.786Z,15.73
2019-01-10T06:23:53.691Z,27.03
2019-01-10T06:26:23.206Z,8.77
2019-01-10T06:28:52.873Z,14.23
2019-01-10T06:31:22.729Z,17.50
2019-01-10T06:33:51.679Z,27.80
2019-01-10T06:36:21.058Z,24.00
2019-01-10T06:38:50.819Z,20.57
2019-01-10T06:41:19.698Z,19.63
2019-01-10T06:43:49.496Z,14.00
2019-01-10T06:46:18.386Z,18.23
2019-01-10T06:48:47.192Z,15.47
2019-01-10T06:51:17.250Z,18.77
2019-01-10T06:53:47.788Z,16.53
2019-01-10T06:56:18.344Z,13.53
2019-01-10T06:58:47.124Z,16.53
2019-01-10T07:01:16.551Z,17.63
2019-01-10T07:03:45.369Z,23.43
2019-01-10T07:06:14.209Z,26.63
2019-01-10T07:08:44.360Z,14.47
2019-01-10T07:11:13.148Z,20.80
2019-01-10T07:13:42.083Z,15.97
2019-01-10T07:16:12.142Z,18.73
2019-01-10T07:18:40.923Z,23.67
2019-01-10T07:21:11.443Z,23.30
2019-01-10T07:23:45.674Z,15.10
2019-01-10T07:26:15.398Z,19.00
2019-01-10T07:28:44.571Z,16.30
2019-01-10T07:31:18.809Z,27.27
2019-01-10T07:33:48.587Z,18.03
2019-01-10T07:36:17.353Z,12.70
2019-01-10T07:38:46.259Z,19.67
2019-01-10T07:41:15.040Z,20.10
2019-01-10T07:43:43.935Z,17.93
2019-01-10T07:46:12.702Z,15.27
2019-01-10T07:48:41.587Z,24.60
2019-01-10T07:51:10.913Z,20.60
2019-01-10T07:53:40.240Z,16.60
2019-01-10T07:56:09.661Z,17.30
2019-01-10T07:58:38.767Z,15.13
2019-01-10T08:01:07.568Z,15.70
2019-01-10T08:03:36.421Z,30.63
2019-01-10T08:06:05.558Z,26.83
2019-01-10T08:08:35.375Z,26.10
2019-01-10T08:11:04.159Z,24.10
2019-01-10T08:13:33.085Z,29.77
2019-01-10T08:16:01.928Z,22.97
2019-01-10T08:18:30.711Z,22.23
2019-01-10T08:20:59.615Z,20.03
2019-01-10T08:23:29.085Z,25.93
2019-01-10T08:25:57.931Z,15.10
2019-01-10T08:28:26.856Z,22.13
2019-01-10T08:30:55.628Z,20.20
2019-01-10T08:33:24.416Z,20.60
2019-01-10T08:35:53.294Z,23.97
2019-01-10T08:38:22.822Z,42.83
2019-01-10T08:40:51.687Z,36.90
2019-01-10T08:43:20.474Z,22.67
2019-01-10T08:45:49.259Z,20.53
2019-01-10T08:48:18.057Z,24.87
2019-01-10T08:50:46.868Z,20.70
2019-01-10T08:53:18.282Z,10.50
2019-01-10T08:55:47.096Z,18.07
2019-01-10T08:58:15.935Z,11.43
2019-01-10T09:00:46.778Z,15.13
2019-01-10T09:03:15.524Z,17.97
2019-01-10T09:05:44.391Z,22.07
2019-01-10T09:08:13.414Z,23.20
2019-01-10T09:10:42.236Z,48.83
2019-01-10T09:13:11.087Z,20.87
2019-01-10T09:15:39.904Z,16.47
2019-01-10T09:18:08.764Z,14.20
2019-01-10T09:20:38.213Z,11.57
2019-01-10T09:23:07.678Z,17.07
2019-01-10T09:25:36.592Z,18.70
2019-01-10T09:28:05.354Z,14.53
2019-01-10T09:30:34.228Z,22.77
2019-01-10T09:33:03.039Z,24.23
2019-01-10T09:35:32.031Z,21.73
2019-01-10T09:38:00.856Z,23.03
2019-01-10T09:40:29.745Z,17.03
2019-01-10T09:42:58.550Z,19.97
2019-01-10T09:45:27.438Z,29.90
2019-01-10T09:47:56.284Z,29.30
2019-01-10T09:50:25.090Z,31.00
2019-01-10T09:52:54.711Z,21.80
2019-01-10T09:55:23.570Z,20.17
2019-01-10T09:57:52.407Z,21.37
2019-01-10T10:00:23.603Z,23.10
2019-01-10T10:02:52.422Z,20.03
2019-01-10T10:05:21.959Z,14.53
2019-01-10T10:07:50.760Z,21.30
2019-01-10T10:10:21.739Z,23.10
2019-01-10T10:12:50.618Z,20.73
2019-01-10T10:15:19.469Z,22.97
2019-01-10T10:17:48.327Z,20.50
2019-01-10T10:20:19.925Z,23.63
2019-01-10T10:22:48.717Z,19.50
2019-01-10T10:25:17.495Z,19.70
2019-01-10T10:27:46.289Z,17.07
2019-01-10T10:30:19.045Z,22.07
2019-01-10T10:32:47.853Z,20.40
2019-01-10T10:35:16.675Z,19.43
2019-01-10T10:37:45.503Z,23.13
2019-01-10T10:40:16.476Z,22.97
2019-01-10T10:42:46.501Z,18.33
2019-01-10T10:45:16.652Z,10.17
2019-01-10T10:47:45.477Z,26.10
2019-01-10T10:50:18.326Z,19.23
2019-01-10T10:52:47.134Z,21.40
2019-01-10T10:55:15.998Z,26.43
2019-01-10T10:57:44.803Z,21.23
2019-01-10T11:00:16.988Z,23.50
2019-01-10T11:02:46.483Z,19.43
2019-01-10T11:05:15.324Z,25.33
2019-01-10T11:07:44.126Z,21.23
2019-01-10T11:10:15.607Z,17.83
2019-01-10T11:12:44.443Z,18.97
2019-01-10T11:15:19.910Z,16.03
2019-01-10T11:17:49.759Z,14.87
2019-01-10T11:20:20.346Z,20.43
2019-01-10T11:22:49.270Z,16.33
2019-01-10T11:25:21.556Z,35.63
2019-01-10T11:27:50.384Z,22.23
2019-01-10T11:30:20.584Z,18.90
2019-01-10T11:32:49.434Z,24.33
2019-01-10T11:35:18.301Z,15.10
2019-01-10T11:37:47.847Z,21.33
2019-01-10T11:40:18.323Z,25.80
2019-01-10T11:42:47.151Z,23.57
2019-01-10T11:45:18.528Z,30.03
2019-01-10T11:47:47.313Z,16.30
2019-01-10T11:50:16.139Z,28.67
2019-01-10T11:52:44.943Z,18.80
2019-01-10T11:55:15.183Z,24.67
2019-01-10T11:57:44.409Z,18.50
2019-01-10T12:00:19.384Z,15.07
2019-01-10T12:02:48.242Z,19.13
2019-01-10T12:05:17.592Z,16.03
2019-01-10T12:07:46.713Z,16.47
2019-01-10T12:10:15.502Z,17.57
2019-01-10T12:12:44.293Z,15.00
2019-01-10T12:15:14.373Z,10.77
2019-01-10T12:17:43.156Z,15.03
2019-01-10T12:20:12.899Z,12.53
2019-01-10T12:22:41.701Z,19.90
2019-01-10T12:25:11.819Z,11.73
2019-01-10T12:27:40.592Z,13.97
2019-01-10T12:30:12.722Z,13.87
2019-01-10T12:32:41.547Z,13.87
2019-01-10T12:35:10.419Z,13.37
2019-01-10T12:37:39.219Z,6.10
2019-01-10T12:40:10.109Z,11.00
2019-01-10T12:42:38.912Z,6.50
2019-01-10T12:45:09.138Z,6.37
2019-01-10T12:47:37.930Z,8.33
2019-01-10T12:50:12.443Z,7.40
2019-01-10T12:52:41.263Z,8.43
2019-01-10T12:55:10.050Z,8.73
2019-01-10T12:57:38.988Z,9.20
2019-01-10T13:00:10.372Z,5.87
2019-01-10T13:02:39.154Z,7.80
2019-01-10T13:05:07.955Z,6.93
2019-01-10T13:07:36.813Z,8.57
2019-01-10T13:10:08.061Z,12.30
2019-01-10T13:12:37.284Z,9.37
2019-01-10T13:15:08.189Z,12.33
2019-01-10T13:17:37.756Z,7.37
2019-01-10T13:20:07.112Z,7.93
2019-01-10T13:22:36.034Z,12.70
2019-01-10T13:25:05.698Z,13.00
2019-01-10T13:27:34.555Z,7.87
2019-01-10T13:30:03.368Z,7.17
2019-01-10T13:32:32.235Z,9.33
2019-01-10T13:35:01.071Z,7.03
2019-01-10T13:37:29.912Z,8.37
2019-01-10T13:39:58.704Z,8.27
2019-01-10T13:42:28.790Z,9.10
2019-01-10T13:44:57.681Z,8.17
2019-01-10T13:47:26.515Z,13.77
2019-01-10T13:49:55.427Z,8.53
2019-01-10T13:52:24.988Z,7.63
2019-01-10T13:54:53.762Z,7.87
2019-01-10T13:57:22.633Z,5.47
2019-01-10T13:59:52.958Z,10.30
2019-01-10T14:02:24.425Z,9.07
2019-01-10T14:04:53.199Z,8.87
2019-01-10T14:07:22.107Z,15.73
2019-01-10T14:09:50.976Z,7.13
2019-01-10T14:12:19.770Z,8.47
2019-01-10T14:14:48.694Z,7.37
2019-01-10T14:17:17.471Z,5.23
2019-01-10T14:19:46.660Z,6.17
2019-01-10T14:22:15.536Z,10.60
2019-01-10T14:24:44.328Z,13.63
2019-01-10T14:27:14.214Z,7.40
2019-01-10T14:29:42.992Z,11.00
2019-01-10T14:32:11.751Z,6.73
2019-01-10T14:34:40.623Z,8.67
2019-01-10T14:37:09.459Z,10.13
2019-01-10T14:39:38.282Z,8.33
2019-01-10T14:42:07.112Z,6.00
2019-01-10T14:44:35.919Z,7.97
2019-01-10T14:47:07.716Z,18.20
2019-01-10T14:49:33.630Z,7.07
2019-01-10T14:52:02.404Z,4.47
2019-01-10T14:54:31.318Z,11.80
2019-01-10T14:57:00.078Z,9.80
2019-01-10T14:59:28.855Z,19.27
2019-01-10T15:01:57.651Z,15.57
2019-01-10T15:04:26.455Z,18.07
2019-01-10T15:06:55.322Z,17.77
2019-01-10T15:09:24.187Z,7.97
2019-01-10T15:11:53.112Z,8.83
2019-01-10T15:14:22.737Z,11.10
2019-01-10T15:16:53.035Z,12.10
2019-01-10T15:19:20.457Z,7.57
2019-01-10T15:21:49.272Z,9.63
2019-01-10T15:24:18.111Z,8.00
2019-01-10T15:26:47.001Z,10.77
2019-01-10T15:29:15.787Z,10.83
2019-01-10T15:31:44.570Z,3.73
2019-01-10T15:34:15.037Z,7.40
2019-01-10T15:36:45.109Z,8.60
2019-01-10T15:39:13.963Z,4.67
2019-01-10T15:41:43.550Z,9.40
2019-01-10T15:44:12.388Z,8.17
2019-01-10T15:46:42.170Z,1.83
2019-01-10T15:49:11.004Z,6.27
2019-01-10T15:51:39.790Z,4.97
2019-01-10T15:54:08.641Z,5.63
2019-01-10T15:56:37.452Z,6.87
2019-01-10T15:59:06.215Z,6.63
2019-01-10T16:01:35.323Z,7.53
2019-01-10T16:04:07.408Z,7.63
2019-01-10T16:06:34.092Z,5.10
2019-01-10T16:09:03.020Z,4.47
2019-01-10T16:11:31.843Z,6.10
2019-01-10T16:14:00.712Z,10.40
2019-01-10T16:16:30.622Z,8.13
2019-01-10T16:19:02.209Z,7.10
2019-01-10T16:21:30.172Z,4.57
2019-01-10T16:23:59.223Z,5.90
2019-01-10T16:26:28.012Z,4.33
2019-01-10T16:28:56.798Z,4.27
2019-01-10T16:31:25.860Z,5.37
2019-01-10T16:33:54.855Z,13.50
2019-01-10T16:36:23.726Z,10.83
2019-01-10T16:38:52.523Z,10.10
2019-01-10T16:41:21.486Z,10.07
2019-01-10T16:43:50.335Z,10.10
2019-01-10T16:46:19.175Z,9.60
2019-01-10T16:48:48.172Z,7.30
2019-01-10T16:51:17.119Z,8.53
2019-01-10T16:53:46.146Z,9.33
2019-01-10T16:56:14.969Z,9.00
2019-01-10T16:58:43.749Z,6.03
2019-01-10T17:01:12.686Z,7.77
2019-01-10T17:03:41.503Z,11.83
2019-01-10T17:06:10.283Z,14.13
2019-01-10T17:08:39.079Z,27.57
2019-01-10T17:11:08.598Z,14.20
2019-01-10T17:13:37.486Z,8.40
2019-01-10T17:16:06.270Z,5.37
2019-01-10T17:18:35.694Z,9.20
2019-01-10T17:21:04.649Z,6.40
2019-01-10T17:23:33.444Z,4.37
2019-01-10T17:26:02.280Z,14.07
2019-01-10T17:28:31.123Z,10.50
2019-01-10T17:31:00.416Z,9.73
2019-01-10T17:33:29.434Z,10.37
2019-01-10T17:35:58.253Z,8.47
2019-01-10T17:38:27.085Z,10.13
2019-01-10T17:40:55.913Z,7.90
2019-01-10T17:43:24.679Z,8.53
2019-01-10T17:45:53.492Z,5.83
2019-01-10T17:48:23.205Z,12.00
2019-01-10T17:50:52.073Z,13.93
2019-01-10T17:53:20.941Z,7.77
2019-01-10T17:55:49.762Z,14.87
2019-01-10T17:58:18.615Z,7.07
2019-01-10T18:00:48.230Z,8.70
2019-01-10T18:03:17.019Z,9.27
2019-01-10T18:05:45.974Z,9.27
2019-01-10T18:08:14.870Z,7.23
2019-01-10T18:10:44.003Z,10.03
2019-01-10T18:13:12.790Z,10.90
2019-01-10T18:15:41.668Z,11.10
2019-01-10T18:18:11.760Z,10.53
2019-01-10T18:20:41.313Z,13.77
2019-01-10T18:23:10.228Z,10.60
2019-01-10T18:25:39.099Z,10.00
2019-01-10T18:28:08.942Z,9.90
2019-01-10T18:30:43.314Z,13.73
2019-01-10T18:33:13.360Z,9.57
2019-01-10T18:35:42.198Z,12.70
2019-01-10T18:38:11.043Z,6.60
2019-01-10T18:40:39.826Z,13.47
2019-01-10T18:43:08.596Z,5.57
2019-01-10T18:45:37.497Z,10.83
2019-01-10T18:48:06.271Z,7.97
2019-01-10T18:50:35.105Z,9.73
2019-01-10T18:53:03.955Z,9.27
2019-01-10T18:55:32.834Z,7.43
2019-01-10T18:58:01.608Z,6.90
2019-01-10T19:00:31.315Z,14.67
2019-01-10T19:03:01.359Z,8.23
2019-01-10T19:05:31.104Z,7.53
2019-01-10T19:08:00.027Z,5.80
2019-01-10T19:10:28.816Z,13.37
2019-01-10T19:12:57.667Z,11.57
2019-01-10T19:15:26.499Z,20.57
2019-01-10T19:17:55.290Z,10.93
2019-01-10T19:20:27.032Z,45.30
2019-01-10T19:22:57.488Z,20.70
2019-01-10T19:25:26.314Z,8.30
2019-01-10T19:27:55.232Z,12.33
2019-01-10T19:30:26.471Z,17.47
2019-01-10T19:32:55.315Z,9.33
2019-01-10T19:35:24.104Z,17.43
2019-01-10T19:37:52.916Z,11.00
2019-01-10T19:40:21.847Z,11.77
2019-01-10T19:42:51.571Z,9.53
2019-01-10T19:45:20.480Z,15.63
2019-01-10T19:47:49.311Z,12.77
2019-01-10T19:50:20.163Z,17.40
2019-01-10T19:52:49.514Z,14.97
2019-01-10T19:55:19.001Z,11.70
2019-01-10T19:57:47.872Z,12.77
2019-01-10T20:00:19.962Z,15.40
2019-01-10T20:02:48.800Z,14.60
2019-01-10T20:05:17.893Z,12.97
2019-01-10T20:07:46.684Z,13.83
2019-01-10T20:10:15.511Z,24.27
2019-01-10T20:12:44.320Z,18.57
2019-01-10T20:15:13.121Z,16.47
2019-01-10T20:17:41.915Z,15.13
2019-01-10T20:20:15.079Z,18.93
2019-01-10T20:22:44.135Z,15.80
2019-01-10T20:25:13.021Z,20.47
2019-01-10T20:27:41.811Z,21.07
2019-01-10T20:30:11.638Z,19.47
2019-01-10T20:32:40.403Z,18.13
2019-01-10T20:35:09.230Z,28.73
2019-01-10T20:37:38.354Z,20.00
2019-01-10T20:40:08.759Z,25.87
2019-01-10T20:42:37.666Z,20.00
2019-01-10T20:45:06.628Z,15.67
2019-01-10T20:47:36.458Z,20.33
2019-01-10T20:50:05.900Z,17.90
2019-01-10T20:52:34.699Z,17.40
2019-01-10T20:55:03.546Z,22.67
2019-01-10T20:57:32.407Z,21.43
2019-01-10T21:00:01.361Z,25.67
2019-01-10T21:02:30.200Z,23.77
2019-01-10T21:04:59.135Z,17.23
2019-01-10T21:07:27.944Z,29.37
2019-01-10T21:09:56.847Z,23.73
2019-01-10T21:12:25.654Z,18.93
2019-01-10T21:14:55.139Z,18.67
2019-01-10T21:17:24.211Z,23.50
2019-01-10T21:19:53.063Z,17.40
2019-01-10T21:22:21.887Z,24.93
2019-01-10T21:24:51.241Z,20.80
2019-01-10T21:27:20.588Z,24.50
2019-01-10T21:29:49.418Z,18.53
2019-01-10T21:32:19.238Z,20.37
2019-01-10T21:34:48.023Z,21.43
2019-01-10T21:37:16.815Z,25.63
2019-01-10T21:39:45.658Z,26.77
2019-01-10T21:42:14.583Z,21.73
2019-01-10T21:44:43.402Z,28.00
2019-01-10T21:47:13.386Z,27.43
2019-01-10T21:49:43.853Z,23.57
2019-01-10T21:52:12.694Z,27.40
2019-01-10T21:54:41.532Z,28.63
2019-01-10T21:57:10.343Z,23.80
2019-01-10T21:59:39.122Z,23.97
2019-01-10T22:02:08.987Z,19.47
2019-01-10T22:04:37.868Z,25.23
2019-01-10T22:07:06.704Z,28.80
2019-01-10T22:09:35.577Z,24.37
2019-01-10T22:12:04.589Z,25.07
2019-01-10T22:14:33.398Z,22.73
2019-01-10T22:17:02.352Z,24.40
2019-01-10T22:19:31.212Z,28.13
2019-01-10T22:22:00.026Z,25.13
2019-01-10T22:24:28.884Z,22.53
2019-01-10T22:26:58.400Z,21.47
2019-01-10T22:29:27.212Z,22.20
2019-01-10T22:31:56.038Z,20.33
2019-01-10T22:34:24.828Z,26.17
2019-01-10T22:36:53.664Z,31.60
2019-01-10T22:39:22.514Z,25.87
2019-01-10T22:41:51.479Z,22.50
2019-01-10T22:44:20.378Z,22.13
2019-01-10T22:46:49.183Z,29.53
2019-01-10T22:49:17.996Z,26.17
2019-01-10T22:51:46.799Z,35.10
2019-01-10T22:54:15.629Z,34.43
2019-01-10T22:56:44.480Z,37.03
2019-01-10T22:59:13.279Z,27.57
2019-01-10T23:01:49.384Z,29.03
2019-01-10T23:04:27.404Z,32.77
2019-01-10T23:06:56.240Z,34.70
2019-01-10T23:09:25.092Z,30.53
2019-01-10T23:11:53.955Z,34.57
2019-01-10T23:14:23.378Z,36.33
2019-01-10T23:16:52.195Z,38.13
2019-01-10T23:19:21.035Z,36.07
2019-01-10T23:21:50.657Z,33.97
2019-01-10T23:24:26.545Z,31.57
2019-01-10T23:26:52.209Z,40.10
2019-01-10T23:29:21.078Z,37.07
2019-01-10T23:31:50.833Z,34.43
2019-01-10T23:34:19.658Z,40.03
2019-01-10T23:36:51.594Z,33.60
2019-01-10T23:39:21.369Z,35.33
2019-01-10T23:41:51.107Z,39.17
2019-01-10T23:44:19.906Z,38.23
2019-01-10T23:46:48.703Z,39.80
2019-01-10T23:49:17.505Z,45.00
2019-01-10T23:51:46.351Z,39.93
2019-01-10T23:54:15.159Z,40.63
2019-01-10T23:56:44.059Z,39.00
2019-01-10T23:59:14.125Z,45.67
